Time;durP1;ratioP1;P1;durP2;ratioP2;P2;SDS_P1;SDS_P2;PMS_P1;PMS_P2;Temp;Humidity;BMP_temperature;BMP_pressure;BME280_temperature;BME280_humidity;BME280_pressure;Samples;Min_cycle;Max_cycle;Signal;HPM_P1;HPM_P2
2023/09/22 00:00:15;;;;;;;;;;;21.40;1.00;;;;;;5034577;28;19925;-52
2023/09/22 00:02:44;;;;;;;;;;;21.40;1.00;;;;;;5034552;28;19925;-55
2023/09/22 00:05:13;;;;;;;;;;;21.40;1.00;;;;;;5034006;28;20020;-53
2023/09/22 00:07:41;;;;;;;;;;;21.40;1.00;;;;;;5034458;28;19957;-55
2023/09/22 00:10:08;;;;;;;;;;;21.30;1.00;;;;;;5034346;28;19929;-51
2023/09/22 00:12:35;;;;;;;;;;;21.30;1.00;;;;;;5034276;28;20387;-54
2023/09/22 00:15:03;;;;;;;;;;;21.30;1.00;;;;;;5033996;28;20406;-53
2023/09/22 00:17:32;;;;;;;;;;;21.30;1.00;;;;;;5025750;28;20354;-55
2023/09/22 00:19:59;;;;;;;;;;;21.30;1.00;;;;;;5034193;28;20011;-53
2023/09/22 00:22:25;;;;;;;;;;;21.30;1.00;;;;;;5034161;28;19937;-54
2023/09/22 00:24:52;;;;;;;;;;;21.30;1.00;;;;;;5034085;28;20013;-53
2023/09/22 00:27:19;;;;;;;;;;;21.30;1.00;;;;;;5033608;28;20320;-55
2023/09/22 00:29:46;;;;;;;;;;;21.30;1.00;;;;;;5031618;28;19929;-53
2023/09/22 00:32:13;;;;;;;;;;;21.30;1.00;;;;;;5032545;28;20048;-55
2023/09/22 00:34:40;;;;;;;;;;;21.30;1.00;;;;;;5032395;28;19932;-54
2023/09/22 00:37:07;;;;;;;;;;;21.30;1.00;;;;;;5032160;28;19925;-55
2023/09/22 00:39:34;;;;;;;;;;;21.30;1.00;;;;;;5033855;28;19932;-54
2023/09/22 00:42:01;;;;;;;;;;;21.30;1.00;;;;;;5032397;28;20270;-55
2023/09/22 00:44:29;;;;;;;;;;;21.30;1.00;;;;;;5033688;28;19925;-55
2023/09/22 00:46:57;;;;;;;;;;;21.30;1.00;;;;;;5034442;28;19924;-55
2023/09/22 00:49:24;;;;;;;;;;;21.30;1.00;;;;;;5033468;28;19925;-55
2023/09/22 00:51:51;;;;;;;;;;;21.30;1.00;;;;;;5032063;28;20425;-54
2023/09/22 00:54:19;;;;;;;;;;;21.20;1.00;;;;;;5033340;28;19976;-55
2023/09/22 00:56:46;;;;;;;;;;;21.20;1.00;;;;;;5033234;28;19935;-55
2023/09/22 00:59:15;;;;;;;;;;;21.30;1.00;;;;;;5032281;28;19925;-55
2023/09/22 01:01:42;;;;;;;;;;;21.20;1.00;;;;;;5034285;28;20028;-55
2023/09/22 01:04:09;;;;;;;;;;;21.20;1.00;;;;;;5035337;28;20298;-52
2023/09/22 01:06:37;;;;;;;;;;;21.20;1.00;;;;;;5035367;28;19925;-55
2023/09/22 01:09:05;;;;;;;;;;;21.20;1.00;;;;;;5035584;28;20378;-52
2023/09/22 01:11:35;;;;;;;;;;;21.20;1.00;;;;;;5031748;28;20024;-54
2023/09/22 01:14:02;;;;;;;;;;;21.20;1.00;;;;;;5031526;28;20471;-54
2023/09/22 01:16:29;;;;;;;;;;;21.20;1.00;;;;;;5031322;28;19978;-50
2023/09/22 01:18:57;;;;;;;;;;;21.20;1.00;;;;;;5032936;28;19983;-51
2023/09/22 01:21:29;;;;;;;;;;;21.20;1.00;;;;;;5031604;28;19925;-53
2023/09/22 01:23:56;;;;;;;;;;;21.20;1.00;;;;;;5031614;28;20448;-50
2023/09/22 01:26:22;;;;;;;;;;;21.20;1.00;;;;;;5032737;28;19929;-51
2023/09/22 01:28:49;;;;;;;;;;;21.20;1.00;;;;;;5031540;28;19925;-50
2023/09/22 01:31:16;;;;;;;;;;;21.20;1.00;;;;;;5031380;28;19931;-50
2023/09/22 01:33:45;;;;;;;;;;;21.20;1.00;;;;;;5031414;28;19925;-50
2023/09/22 01:36:16;;;;;;;;;;;21.10;1.00;;;;;;5032594;28;19990;-50
2023/09/22 01:38:43;;;;;;;;;;;21.10;1.00;;;;;;5015204;28;19925;-53
2023/09/22 01:41:13;;;;;;;;;;;21.10;1.00;;;;;;5031008;28;19925;-52
2023/09/22 01:43:41;;;;;;;;;;;21.10;1.00;;;;;;5031298;28;19925;-53
2023/09/22 01:46:08;;;;;;;;;;;21.10;1.00;;;;;;5031040;28;19933;-50
2023/09/22 01:48:35;;;;;;;;;;;21.10;1.00;;;;;;5031102;28;19925;-50
2023/09/22 01:51:03;;;;;;;;;;;21.10;1.00;;;;;;5030314;28;20319;-53
2023/09/22 01:53:30;;;;;;;;;;;21.10;1.00;;;;;;5031131;28;20028;-51
2023/09/22 01:55:57;;;;;;;;;;;21.10;1.00;;;;;;5030850;28;19932;-49
2023/09/22 01:58:23;;;;;;;;;;;21.10;1.00;;;;;;5031166;28;19948;-51
2023/09/22 02:00:51;;;;;;;;;;;21.10;1.00;;;;;;5032640;28;20112;-51
2023/09/22 02:03:18;;;;;;;;;;;21.10;1.00;;;;;;5031005;28;19929;-52
2023/09/22 02:05:46;;;;;;;;;;;21.10;1.00;;;;;;5030734;28;19986;-53
2023/09/22 02:08:12;;;;;;;;;;;21.10;1.00;;;;;;5032570;28;19929;-51
2023/09/22 02:10:39;;;;;;;;;;;21.10;1.00;;;;;;5031141;28;19925;-55
2023/09/22 02:13:08;;;;;;;;;;;21.10;1.00;;;;;;5032492;28;19928;-55
2023/09/22 02:15:36;;;;;;;;;;;21.10;1.00;;;;;;5030312;28;19984;-55
2023/09/22 02:18:03;;;;;;;;;;;21.10;1.00;;;;;;5032240;28;19971;-55
2023/09/22 02:20:31;;;;;;;;;;;21.10;1.00;;;;;;5030903;28;19925;-54
2023/09/22 02:22:58;;;;;;;;;;;21.10;1.00;;;;;;5030995;28;20425;-55
2023/09/22 02:25:25;;;;;;;;;;;21.00;1.00;;;;;;5030483;28;19971;-55
2023/09/22 02:27:54;;;;;;;;;;;21.00;1.00;;;;;;5032289;28;20442;-50
2023/09/22 02:30:22;;;;;;;;;;;21.00;1.00;;;;;;5032342;28;19979;-53
2023/09/22 02:32:49;;;;;;;;;;;21.00;1.00;;;;;;5032285;28;19965;-49
2023/09/22 02:35:16;;;;;;;;;;;21.10;1.00;;;;;;5030462;28;19925;-50
2023/09/22 02:37:43;;;;;;;;;;;21.00;1.00;;;;;;5014591;28;19925;-53
2023/09/22 02:40:13;;;;;;;;;;;21.00;1.00;;;;;;5032150;28;19925;-53
2023/09/22 02:42:40;;;;;;;;;;;21.00;1.00;;;;;;5030784;28;19953;-50
2023/09/22 02:45:09;;;;;;;;;;;21.00;1.00;;;;;;5030777;28;19925;-53
2023/09/22 02:47:37;;;;;;;;;;;21.00;1.00;;;;;;5031965;28;19925;-54
2023/09/22 02:50:05;;;;;;;;;;;21.00;1.00;;;;;;5031924;28;20008;-49
2023/09/22 02:52:33;;;;;;;;;;;21.00;1.00;;;;;;5030937;28;19961;-50
2023/09/22 02:54:59;;;;;;;;;;;21.00;1.00;;;;;;5035685;28;19996;-49
2023/09/22 02:57:26;;;;;;;;;;;21.00;1.00;;;;;;5033883;28;19971;-51
2023/09/22 02:59:53;;;;;;;;;;;21.00;1.00;;;;;;5034389;28;20412;-50
2023/09/22 03:02:20;;;;;;;;;;;21.00;1.00;;;;;;5035683;28;19925;-53
2023/09/22 03:04:49;;;;;;;;;;;21.00;1.00;;;;;;5034207;28;19931;-54
2023/09/22 03:07:16;;;;;;;;;;;21.00;1.00;;;;;;5033819;28;19932;-54
2023/09/22 03:09:43;;;;;;;;;;;20.90;1.00;;;;;;5034181;28;19979;-51
2023/09/22 03:12:10;;;;;;;;;;;21.00;1.00;;;;;;5034160;28;20345;-53
2023/09/22 03:14:36;;;;;;;;;;;21.00;1.00;;;;;;5033824;28;19948;-50
2023/09/22 03:17:04;;;;;;;;;;;20.90;1.00;;;;;;5033759;28;19952;-50
2023/09/22 03:19:31;;;;;;;;;;;21.00;1.00;;;;;;5034049;28;19994;-52
2023/09/22 03:21:57;;;;;;;;;;;20.90;1.00;;;;;;5035504;28;19925;-50
2023/09/22 03:24:24;;;;;;;;;;;20.90;1.00;;;;;;5033653;28;20365;-64
2023/09/22 03:26:51;;;;;;;;;;;20.90;1.00;;;;;;5034861;28;20365;-64
2023/09/22 03:29:18;;;;;;;;;;;20.90;1.00;;;;;;5035151;28;19941;-64
2023/09/22 03:31:45;;;;;;;;;;;20.90;1.00;;;;;;5033727;28;19977;-64
2023/09/22 03:34:12;;;;;;;;;;;20.90;1.00;;;;;;5033648;28;19972;-64
2023/09/22 03:36:41;;;;;;;;;;;20.90;1.00;;;;;;5033289;28;19960;-64
2023/09/22 03:39:12;;;;;;;;;;;20.90;1.00;;;;;;5033583;28;19961;-64
2023/09/22 03:41:42;;;;;;;;;;;20.90;1.00;;;;;;5033525;28;19975;-64
2023/09/22 03:44:08;;;;;;;;;;;20.90;1.00;;;;;;5033291;28;20354;-64
2023/09/22 03:46:35;;;;;;;;;;;20.90;1.00;;;;;;5033096;28;20361;-64
2023/09/22 03:49:03;;;;;;;;;;;20.90;1.00;;;;;;5033279;28;19928;-64
2023/09/22 03:51:30;;;;;;;;;;;20.90;1.00;;;;;;5033422;28;19925;-64
2023/09/22 03:53:57;;;;;;;;;;;20.90;1.00;;;;;;5034586;28;19933;-64
2023/09/22 03:56:24;;;;;;;;;;;20.90;1.00;;;;;;5264948;22;19932;-66
2023/09/22 03:58:51;;;;;;;;;;;20.90;1.00;;;;;;5014033;28;20117;-66
2023/09/22 04:01:17;;;;;;;;;;;20.90;1.00;;;;;;5029154;28;19926;-66
2023/09/22 04:03:47;;;;;;;;;;;20.90;1.00;;;;;;5013931;28;20291;-66
2023/09/22 04:06:16;;;;;;;;;;;20.80;1.00;;;;;;5034458;28;20337;-66
2023/09/22 04:08:43;;;;;;;;;;;20.90;1.00;;;;;;5048786;28;20016;-66
2023/09/22 04:11:10;;;;;;;;;;;20.80;1.00;;;;;;5032539;28;19925;-66
2023/09/22 04:13:37;;;;;;;;;;;20.80;1.00;;;;;;5033793;28;19929;-66
2023/09/22 04:16:04;;;;;;;;;;;20.80;1.00;;;;;;5031659;28;19987;-66
2023/09/22 04:18:31;;;;;;;;;;;20.80;1.00;;;;;;5034417;28;20267;-66
2023/09/22 04:21:01;;;;;;;;;;;20.80;1.00;;;;;;5033867;28;19979;-66
2023/09/22 04:23:28;;;;;;;;;;;20.80;1.00;;;;;;5033950;28;19971;-66
2023/09/22 04:25:59;;;;;;;;;;;20.80;1.00;;;;;;5033244;28;20011;-66
2023/09/22 04:28:33;;;;;;;;;;;20.80;1.00;;;;;;5117395;22;19925;31
2023/09/22 04:31:01;;;;;;;;;;;20.80;1.00;;;;;;5016973;28;20455;-66
2023/09/22 04:33:28;;;;;;;;;;;20.80;1.00;;;;;;5013716;28;20008;-66
2023/09/22 04:35:55;;;;;;;;;;;20.80;1.00;;;;;;5012988;28;19929;-66
2023/09/22 04:38:22;;;;;;;;;;;20.80;1.00;;;;;;5014048;28;20283;-66
2023/09/22 04:40:48;;;;;;;;;;;20.80;1.00;;;;;;5013671;28;20035;-65
2023/09/22 04:43:15;;;;;;;;;;;20.80;1.00;;;;;;5009570;28;20334;-65
2023/09/22 04:45:45;;;;;;;;;;;20.80;1.00;;;;;;5011320;28;19969;-66
2023/09/22 04:48:13;;;;;;;;;;;20.80;1.00;;;;;;5011632;28;20494;-65
2023/09/22 04:50:40;;;;;;;;;;;20.80;1.00;;;;;;5013165;28;20298;-66
2023/09/22 04:53:07;;;;;;;;;;;20.70;1.00;;;;;;5005922;28;20353;-65
2023/09/22 04:55:37;;;;;;;;;;;20.70;1.00;;;;;;5006519;28;19929;-65
2023/09/22 04:58:05;;;;;;;;;;;20.70;1.00;;;;;;5008179;28;19937;-65
2023/09/22 05:00:34;;;;;;;;;;;20.70;1.00;;;;;;5135168;22;19928;-66
2023/09/22 05:03:01;;;;;;;;;;;20.70;1.00;;;;;;5071484;28;19925;-65
2023/09/22 05:05:28;;;;;;;;;;;20.70;1.00;;;;;;5072484;28;19951;-65
2023/09/22 05:07:55;;;;;;;;;;;20.70;1.00;;;;;;5064823;28;19925;-65
2023/09/22 05:10:22;;;;;;;;;;;20.70;1.00;;;;;;5073154;28;19928;-66
2023/09/22 05:12:52;;;;;;;;;;;20.70;1.00;;;;;;5073112;28;20404;-66
2023/09/22 05:15:20;;;;;;;;;;;20.70;1.00;;;;;;5072230;28;19924;-66
2023/09/22 05:17:46;;;;;;;;;;;20.70;1.00;;;;;;5072689;28;19924;-66
2023/09/22 05:20:13;;;;;;;;;;;20.70;1.00;;;;;;5073148;28;19924;-66
2023/09/22 05:22:41;;;;;;;;;;;20.70;1.00;;;;;;5073033;28;20011;-66
2023/09/22 05:25:08;;;;;;;;;;;20.70;1.00;;;;;;5072626;28;19924;-66
2023/09/22 05:27:35;;;;;;;;;;;20.70;1.00;;;;;;5072574;28;20386;-66
2023/09/22 05:30:03;;;;;;;;;;;20.70;1.00;;;;;;5072637;28;20395;-66
2023/09/22 05:32:30;;;;;;;;;;;20.70;1.00;;;;;;5072230;28;19924;-66
2023/09/22 05:34:57;;;;;;;;;;;20.70;1.00;;;;;;5061908;28;19948;-66
2023/09/22 05:37:24;;;;;;;;;;;20.70;1.00;;;;;;5043930;28;19933;-67
2023/09/22 05:39:51;;;;;;;;;;;20.70;1.00;;;;;;5046766;28;20012;-65
2023/09/22 05:42:18;;;;;;;;;;;20.70;1.00;;;;;;5043893;28;20012;-65
2023/09/22 05:44:45;;;;;;;;;;;20.70;1.00;;;;;;5046570;28;19931;-66
2023/09/22 05:47:12;;;;;;;;;;;20.70;1.00;;;;;;5043780;28;19968;-64
2023/09/22 05:49:39;;;;;;;;;;;20.70;1.00;;;;;;5046215;28;19933;-64
2023/09/22 05:52:06;;;;;;;;;;;20.70;1.00;;;;;;5044986;28;19967;-65
2023/09/22 05:54:33;;;;;;;;;;;20.70;1.00;;;;;;5045626;28;19952;-65
2023/09/22 05:56:59;;;;;;;;;;;20.70;1.00;;;;;;5049315;28;19925;-68
2023/09/22 05:59:27;;;;;;;;;;;20.70;1.00;;;;;;5051483;28;20006;-67
2023/09/22 06:01:57;;;;;;;;;;;20.70;1.00;;;;;;5578795;22;19932;-67
2023/09/22 06:04:24;;;;;;;;;;;20.70;1.00;;;;;;5051974;28;20480;-67
2023/09/22 06:06:53;;;;;;;;;;;20.70;1.00;;;;;;5051246;28;19924;-67
2023/09/22 06:09:21;;;;;;;;;;;20.70;1.00;;;;;;5052214;28;19924;-68
2023/09/22 06:11:49;;;;;;;;;;;20.70;1.00;;;;;;5052101;28;19939;-67
2023/09/22 06:14:16;;;;;;;;;;;20.70;1.00;;;;;;5052108;28;20416;-67
2023/09/22 06:16:43;;;;;;;;;;;20.70;1.00;;;;;;5051290;28;19932;-68
2023/09/22 06:19:12;;;;;;;;;;;20.70;1.00;;;;;;5051977;28;20402;-68
2023/09/22 06:21:39;;;;;;;;;;;20.70;1.00;;;;;;5043134;28;19925;-68
2023/09/22 06:24:07;;;;;;;;;;;20.70;1.00;;;;;;5032021;28;19979;-66
2023/09/22 06:26:34;;;;;;;;;;;20.70;1.00;;;;;;5012054;28;20399;-67
2023/09/22 06:29:00;;;;;;;;;;;20.80;1.00;;;;;;5036071;28;19925;-67
2023/09/22 06:31:27;;;;;;;;;;;20.70;1.00;;;;;;5036030;28;19933;-67
2023/09/22 06:33:54;;;;;;;;;;;20.70;1.00;;;;;;5328287;22;20074;-68
2023/09/22 06:36:22;;;;;;;;;;;20.70;1.00;;;;;;5051510;28;19971;-68
2023/09/22 06:38:50;;;;;;;;;;;20.80;1.00;;;;;;5045008;28;19971;-68
2023/09/22 06:41:18;;;;;;;;;;;20.70;1.00;;;;;;5044958;28;19929;-68
2023/09/22 06:43:46;;;;;;;;;;;20.70;1.00;;;;;;5042997;28;19952;-68
2023/09/22 06:46:23;;;;;;;;;;;20.70;1.00;;;;;;5033604;28;19929;-68
2023/09/22 06:48:51;;;;;;;;;;;20.70;1.00;;;;;;5033488;28;19925;-68
2023/09/22 06:51:18;;;;;;;;;;;20.70;1.00;;;;;;5035312;28;20016;-68
2023/09/22 06:53:47;;;;;;;;;;;20.70;1.00;;;;;;5035247;28;20361;-68
2023/09/22 06:56:13;;;;;;;;;;;20.80;1.00;;;;;;5034975;28;19979;-68
2023/09/22 06:58:40;;;;;;;;;;;20.70;1.00;;;;;;5035284;28;19925;-68
2023/09/22 07:01:09;;;;;;;;;;;20.70;1.00;;;;;;5043359;28;20333;-68
2023/09/22 07:03:38;;;;;;;;;;;20.70;1.00;;;;;;5046752;28;19936;-68
2023/09/22 07:09:00;;;;;;;;;;;20.70;1.00;;;;;;5044408;23;20447;-68
2023/09/22 07:11:27;;;;;;;;;;;20.70;1.00;;;;;;4932345;29;20459;-68
2023/09/22 07:13:57;;;;;;;;;;;20.70;1.00;;;;;;4937681;29;20393;-69
2023/09/22 07:16:23;;;;;;;;;;;20.70;1.00;;;;;;4928615;29;19927;-69
2023/09/22 07:18:50;;;;;;;;;;;20.70;1.00;;;;;;4932408;29;19962;-69
2023/09/22 07:21:17;;;;;;;;;;;20.70;1.00;;;;;;4927961;29;19931;-69
2023/09/22 07:23:44;;;;;;;;;;;20.70;1.00;;;;;;4927080;29;19927;-69
2023/09/22 07:26:11;;;;;;;;;;;20.70;1.00;;;;;;4928294;29;19998;-69
2023/09/22 07:28:39;;;;;;;;;;;20.70;1.00;;;;;;4927408;29;19982;-69
2023/09/22 07:31:11;;;;;;;;;;;20.70;1.00;;;;;;4926856;29;20389;-69
2023/09/22 07:33:39;;;;;;;;;;;20.70;1.00;;;;;;4932096;29;19927;-69
2023/09/22 07:36:07;;;;;;;;;;;20.70;1.00;;;;;;4924933;29;19974;-69
2023/09/22 07:41:11;;;;;;;;;;;20.70;1.00;;;;;;4882462;29;19935;-67
2023/09/22 07:43:38;;;;;;;;;;;20.70;1.00;;;;;;4886025;29;19931;-67
2023/09/22 07:46:06;;;;;;;;;;;20.70;1.00;;;;;;4882840;29;20298;-68
2023/09/22 07:48:34;;;;;;;;;;;20.70;1.00;;;;;;4877021;29;19931;-67
2023/09/22 07:51:02;;;;;;;;;;;20.70;1.00;;;;;;4878274;29;19932;-67
2023/09/22 07:53:29;;;;;;;;;;;20.70;1.00;;;;;;4878037;29;20407;-67
2023/09/22 07:55:59;;;;;;;;;;;20.70;1.00;;;;;;4871584;29;19940;-67
2023/09/22 07:58:26;;;;;;;;;;;20.70;1.00;;;;;;4879047;29;20395;-67
2023/09/22 08:00:53;;;;;;;;;;;20.60;1.00;;;;;;4878254;29;19963;-67
2023/09/22 08:03:20;;;;;;;;;;;20.60;1.00;;;;;;4869705;29;19927;-67
2023/09/22 08:05:48;;;;;;;;;;;20.60;1.00;;;;;;4865244;29;20294;-67
2023/09/22 08:08:17;;;;;;;;;;;20.60;1.00;;;;;;4871570;29;19928;-66
2023/09/22 08:10:44;;;;;;;;;;;20.60;1.00;;;;;;4874741;29;19939;-69
2023/09/22 08:13:11;;;;;;;;;;;20.60;1.00;;;;;;4875313;29;20244;-68
2023/09/22 08:15:38;;;;;;;;;;;20.60;1.00;;;;;;4873520;29;19936;-68
2023/09/22 08:18:05;;;;;;;;;;;20.60;1.00;;;;;;4870348;29;19967;-68
2023/09/22 08:20:33;;;;;;;;;;;20.60;1.00;;;;;;4872474;29;19928;-68
2023/09/22 08:23:00;;;;;;;;;;;20.60;1.00;;;;;;4876445;29;20347;-68
2023/09/22 08:25:27;;;;;;;;;;;20.50;1.00;;;;;;4877708;29;20513;-68
2023/09/22 08:27:56;;;;;;;;;;;20.60;1.00;;;;;;4879609;29;20474;-69
2023/09/22 08:30:24;;;;;;;;;;;20.50;1.00;;;;;;4879814;29;19936;-69
2023/09/22 08:32:50;;;;;;;;;;;20.50;1.00;;;;;;4878362;29;20002;-69
2023/09/22 08:35:17;;;;;;;;;;;20.50;1.00;;;;;;4879455;29;19928;-69
2023/09/22 08:37:44;;;;;;;;;;;20.60;1.00;;;;;;4871835;29;19927;-69
2023/09/22 08:40:14;;;;;;;;;;;20.50;1.00;;;;;;4952110;23;19931;-69
2023/09/22 08:42:47;;;;;;;;;;;20.60;1.00;;;;;;4936108;29;20030;-69
2023/09/22 08:45:14;;;;;;;;;;;20.50;1.00;;;;;;4928553;29;19938;-69
2023/09/22 08:47:44;;;;;;;;;;;20.60;1.00;;;;;;4940239;28;19982;-68
2023/09/22 08:50:13;;;;;;;;;;;20.60;1.00;;;;;;4935193;28;19933;-68
2023/09/22 08:52:40;;;;;;;;;;;20.60;1.00;;;;;;4935726;28;19934;-68
2023/09/22 08:55:08;;;;;;;;;;;20.50;1.00;;;;;;4935733;28;19933;-68
2023/09/22 08:57:35;;;;;;;;;;;20.50;1.00;;;;;;4935485;28;19927;-68
2023/09/22 09:00:10;;;;;;;;;;;20.50;1.00;;;;;;4935705;28;19982;-68
2023/09/22 09:02:38;;;;;;;;;;;20.50;1.00;;;;;;4935890;28;19974;-68
2023/09/22 09:05:25;;;;;;;;;;;20.50;1.00;;;;;;4935558;28;19927;-68
2023/09/22 09:07:52;;;;;;;;;;;20.50;1.00;;;;;;4935351;28;20389;-68
2023/09/22 09:13:15;;;;;;;;;;;20.50;1.00;;;;;;5238399;23;19987;-68
2023/09/22 09:15:47;;;;;;;;;;;20.50;1.00;;;;;;4897257;29;19966;-68
2023/09/22 09:18:16;;;;;;;;;;;20.60;1.00;;;;;;4897560;29;19931;-68
2023/09/22 09:20:44;;;;;;;;;;;20.50;1.00;;;;;;4897429;29;19938;-68
2023/09/22 09:23:12;;;;;;;;;;;20.50;1.00;;;;;;4880873;29;19935;-68
2023/09/22 09:25:45;;;;;;;;;;;20.50;1.00;;;;;;4897126;29;19927;-68
2023/09/22 09:28:13;;;;;;;;;;;20.50;1.00;;;;;;4880697;29;19950;-68
2023/09/22 09:30:52;;;;;;;;;;;20.60;1.00;;;;;;4897326;29;19994;-68
2023/09/22 09:33:20;;;;;;;;;;;20.50;1.00;;;;;;4873222;29;19935;-68
2023/09/22 09:35:47;;;;;;;;;;;20.50;1.00;;;;;;4896968;29;19975;-68
2023/09/22 09:38:18;;;;;;;;;;;20.50;1.00;;;;;;4897164;29;20437;-68
2023/09/22 09:40:46;;;;;;;;;;;20.50;1.00;;;;;;4897481;29;19936;-68
2023/09/22 09:46:18;;;;;;;;;;;20.60;1.00;;;;;;4892062;29;19935;-68
2023/09/22 09:48:45;;;;;;;;;;;20.50;1.00;;;;;;4878263;29;19976;-68
2023/09/22 09:51:13;;;;;;;;;;;20.60;1.00;;;;;;4885976;29;19990;-68
2023/09/22 09:53:40;;;;;;;;;;;20.60;1.00;;;;;;4878450;29;19932;-68
2023/09/22 09:56:07;;;;;;;;;;;20.60;1.00;;;;;;4893370;29;20386;-68
2023/09/22 09:58:35;;;;;;;;;;;20.60;1.00;;;;;;4878444;29;19928;-68
2023/09/22 10:01:05;;;;;;;;;;;20.60;1.00;;;;;;4878226;29;19934;-68
2023/09/22 10:03:33;;;;;;;;;;;20.60;1.00;;;;;;4878396;29;20247;-68
2023/09/22 10:06:02;;;;;;;;;;;20.60;1.00;;;;;;4885455;29;19938;-68
2023/09/22 10:08:29;;;;;;;;;;;20.60;1.00;;;;;;4886069;29;19938;-68
2023/09/22 10:10:58;;;;;;;;;;;20.60;1.00;;;;;;4878337;29;19928;-68
2023/09/22 10:13:26;;;;;;;;;;;20.60;1.00;;;;;;4878382;29;19939;-68
2023/09/22 10:18:51;;;;;;;;;;;20.60;1.00;;;;;;4966900;23;19933;-68
2023/09/22 10:21:30;;;;;;;;;;;20.60;1.00;;;;;;4953711;28;20408;-68
2023/09/22 10:24:16;;;;;;;;;;;20.60;1.00;;;;;;4953716;28;19934;-68
2023/09/22 10:27:07;;;;;;;;;;;20.60;1.00;;;;;;4953722;28;20360;-68
2023/09/22 10:29:34;;;;;;;;;;;20.60;1.00;;;;;;4954006;28;19932;-68
2023/09/22 10:34:44;;;;;;;;;;;20.60;1.00;;;;;;4953788;28;20037;-68
2023/09/22 10:37:11;;;;;;;;;;;20.70;1.00;;;;;;4953265;28;20500;-68
2023/09/22 10:39:51;;;;;;;;;;;20.70;1.00;;;;;;4953777;28;19926;-68
2023/09/22 10:42:18;;;;;;;;;;;20.70;1.00;;;;;;4953532;28;19933;-68
2023/09/22 10:44:58;;;;;;;;;;;20.70;1.00;;;;;;4953534;28;20012;-68
2023/09/22 10:47:35;;;;;;;;;;;20.70;1.00;;;;;;4945848;28;19974;-68
2023/09/22 10:50:15;;;;;;;;;;;20.70;1.00;;;;;;5050876;23;19927;-67
2023/09/22 10:52:49;;;;;;;;;;;20.70;1.00;;;;;;4953598;28;20289;-67
2023/09/22 10:55:30;;;;;;;;;;;20.70;1.00;;;;;;4953537;28;19931;-67
2023/09/22 10:57:57;;;;;;;;;;;20.70;1.00;;;;;;4965104;28;20028;-67
2023/09/22 11:00:24;;;;;;;;;;;20.70;1.00;;;;;;4961697;28;19970;-67
2023/09/22 11:02:52;;;;;;;;;;;20.80;1.00;;;;;;4960010;28;20405;-67
2023/09/22 11:05:19;;;;;;;;;;;20.80;1.00;;;;;;4954147;28;19930;-68
2023/09/22 11:07:48;;;;;;;;;;;20.80;1.00;;;;;;4953588;28;19966;-67
2023/09/22 11:10:21;;;;;;;;;;;20.80;1.00;;;;;;4953332;28;19934;-67
2023/09/22 11:12:48;;;;;;;;;;;20.80;1.00;;;;;;4953844;28;19926;-67
2023/09/22 11:15:15;;;;;;;;;;;20.80;1.00;;;;;;4963942;28;20036;-67
2023/09/22 11:17:46;;;;;;;;;;;20.80;1.00;;;;;;4956433;28;20285;-68
2023/09/22 11:20:22;;;;;;;;;;;20.80;1.00;;;;;;5048426;23;19927;-67
2023/09/22 11:22:50;;;;;;;;;;;20.80;1.00;;;;;;4918757;29;20297;-67
2023/09/22 11:25:17;;;;;;;;;;;20.80;1.00;;;;;;4918262;29;19951;-68
2023/09/22 11:27:48;;;;;;;;;;;20.80;1.00;;;;;;4918781;29;20013;-67
2023/09/22 11:30:17;;;;;;;;;;;20.80;1.00;;;;;;4918477;29;19928;-67
2023/09/22 11:32:45;;;;;;;;;;;20.90;1.00;;;;;;4918483;29;19991;-67
2023/09/22 11:35:39;;;;;;;;;;;20.80;1.00;;;;;;4918105;29;20395;-67
2023/09/22 11:38:27;;;;;;;;;;;20.90;1.00;;;;;;4918344;29;19927;-68
2023/09/22 11:41:08;;;;;;;;;;;20.90;1.00;;;;;;4918313;29;20389;-67
2023/09/22 11:43:36;;;;;;;;;;;20.90;1.00;;;;;;4918507;29;20442;-67
2023/09/22 11:46:10;;;;;;;;;;;20.90;1.00;;;;;;4918040;29;19958;-67
2023/09/22 11:48:55;;;;;;;;;;;20.90;1.00;;;;;;4911194;29;19928;-67
2023/09/22 11:51:37;;;;;;;;;;;20.90;1.00;;;;;;4978365;23;19926;-67
2023/09/22 11:54:04;;;;;;;;;;;20.90;1.00;;;;;;4976036;28;19965;-67
2023/09/22 11:56:31;;;;;;;;;;;20.90;1.00;;;;;;4972442;28;20049;-67
2023/09/22 11:59:12;;;;;;;;;;;20.90;1.00;;;;;;4956040;28;20399;-67
2023/09/22 12:01:40;;;;;;;;;;;20.90;1.00;;;;;;4936127;28;19927;-67
2023/09/22 12:04:10;;;;;;;;;;;20.90;1.00;;;;;;4959344;28;19982;-67
2023/09/22 12:06:40;;;;;;;;;;;20.90;1.00;;;;;;4952422;28;19933;-67
2023/09/22 12:09:11;;;;;;;;;;;20.90;1.00;;;;;;4959406;28;19933;-67
2023/09/22 12:11:39;;;;;;;;;;;20.90;1.00;;;;;;4956675;28;19932;-67
2023/09/22 12:14:06;;;;;;;;;;;20.90;1.00;;;;;;4956084;28;19930;-67
2023/09/22 12:16:34;;;;;;;;;;;20.90;1.00;;;;;;4963243;28;19974;-67
2023/09/22 12:19:01;;;;;;;;;;;20.90;1.00;;;;;;4955675;28;20292;-67
2023/09/22 12:24:19;;;;;;;;;;;20.90;1.00;;;;;;4915060;29;20393;-68
2023/09/22 12:26:46;;;;;;;;;;;20.90;1.00;;;;;;4917040;29;20034;-68
2023/09/22 12:29:15;;;;;;;;;;;20.90;1.00;;;;;;4917321;29;20393;-68
2023/09/22 12:31:44;;;;;;;;;;;20.90;1.00;;;;;;4917393;29;19931;-68
2023/09/22 12:34:11;;;;;;;;;;;20.90;1.00;;;;;;4917528;29;19927;-68
2023/09/22 12:36:39;;;;;;;;;;;20.90;1.00;;;;;;4916817;29;19931;-68
2023/09/22 12:39:06;;;;;;;;;;;20.90;1.00;;;;;;4917080;29;19971;-68
2023/09/22 12:41:33;;;;;;;;;;;20.90;1.00;;;;;;4916918;29;19966;-68
2023/09/22 12:44:00;;;;;;;;;;;20.90;1.00;;;;;;4916904;29;19962;-68
2023/09/22 12:46:27;;;;;;;;;;;20.90;1.00;;;;;;4916488;29;19975;-68
2023/09/22 12:48:54;;;;;;;;;;;20.90;1.00;;;;;;4917031;29;19928;-68
2023/09/22 12:51:21;;;;;;;;;;;20.90;1.00;;;;;;4916856;29;19934;-68
2023/09/22 12:53:49;;;;;;;;;;;20.90;1.00;;;;;;5331241;23;20683;31
2023/09/22 12:56:16;;;;;;;;;;;20.90;1.00;;;;;;4916009;29;19963;-68
2023/09/22 12:58:42;;;;;;;;;;;20.90;1.00;;;;;;4916945;29;19934;-68
2023/09/22 13:01:10;;;;;;;;;;;20.90;1.00;;;;;;4932223;29;19966;-68
2023/09/22 13:03:38;;;;;;;;;;;20.90;1.00;;;;;;4924933;29;19987;-68
2023/09/22 13:06:04;;;;;;;;;;;20.90;1.00;;;;;;4924274;29;20278;-68
2023/09/22 13:08:36;;;;;;;;;;;20.90;1.00;;;;;;4916513;29;20014;-69
2023/09/22 13:11:03;;;;;;;;;;;20.90;1.00;;;;;;4916710;29;19975;-68
2023/09/22 13:13:30;;;;;;;;;;;20.90;1.00;;;;;;4899444;29;20417;-68
2023/09/22 13:15:58;;;;;;;;;;;20.90;1.00;;;;;;4923928;29;19927;-68
2023/09/22 13:18:25;;;;;;;;;;;20.90;1.00;;;;;;4916409;29;19927;-68
2023/09/22 13:20:51;;;;;;;;;;;20.90;1.00;;;;;;4907366;29;19961;-68
2023/09/22 13:23:19;;;;;;;;;;;20.90;1.00;;;;;;4916430;29;20373;-68
2023/09/22 13:28:42;;;;;;;;;;;20.90;1.00;;;;;;5114383;23;20452;-68
2023/09/22 13:31:09;;;;;;;;;;;20.90;1.00;;;;;;4935254;29;19927;-68
2023/09/22 13:33:36;;;;;;;;;;;20.90;1.00;;;;;;4935149;29;19966;-68
2023/09/22 13:36:02;;;;;;;;;;;20.90;1.00;;;;;;4934550;28;20389;-68
2023/09/22 13:38:29;;;;;;;;;;;20.90;1.00;;;;;;4934762;28;19938;-68
2023/09/22 13:40:56;;;;;;;;;;;20.90;1.00;;;;;;4935076;28;19927;-68
2023/09/22 13:43:23;;;;;;;;;;;20.90;1.00;;;;;;4935012;28;19962;-68
2023/09/22 13:45:50;;;;;;;;;;;20.90;1.00;;;;;;4934691;28;20404;-68
2023/09/22 13:48:17;;;;;;;;;;;20.90;1.00;;;;;;4934966;28;19969;-68
2023/09/22 13:50:50;;;;;;;;;;;20.90;1.00;;;;;;4934898;28;20419;-68
2023/09/22 13:53:17;;;;;;;;;;;20.90;1.00;;;;;;4935088;28;20366;-68
2023/09/22 13:55:44;;;;;;;;;;;20.90;1.00;;;;;;4938263;28;19993;-68
2023/09/22 13:58:11;;;;;;;;;;;20.90;1.00;;;;;;4939146;28;19931;-68
2023/09/22 14:00:38;;;;;;;;;;;20.90;1.00;;;;;;5012521;23;19941;-68
2023/09/22 14:03:04;;;;;;;;;;;20.90;1.00;;;;;;4935027;29;20304;-68
2023/09/22 14:05:32;;;;;;;;;;;20.90;1.00;;;;;;4935163;28;19937;-68
2023/09/22 14:07:59;;;;;;;;;;;20.90;1.00;;;;;;4940339;28;19974;-68
2023/09/22 14:10:27;;;;;;;;;;;20.90;1.00;;;;;;4945857;28;20274;-68
2023/09/22 14:12:54;;;;;;;;;;;20.90;1.00;;;;;;4941294;28;20430;-68
2023/09/22 14:15:21;;;;;;;;;;;20.90;1.00;;;;;;4942673;28;19927;-68
2023/09/22 14:17:49;;;;;;;;;;;20.90;1.00;;;;;;4934695;28;20025;-68
2023/09/22 14:20:16;;;;;;;;;;;20.90;1.00;;;;;;4934831;28;19931;-68
2023/09/22 14:22:43;;;;;;;;;;;20.90;1.00;;;;;;4934579;28;19927;-68
2023/09/22 14:25:11;;;;;;;;;;;20.90;1.00;;;;;;4941318;28;19962;-68
2023/09/22 14:27:39;;;;;;;;;;;20.90;1.00;;;;;;4935090;28;19965;-68
2023/09/22 14:30:07;;;;;;;;;;;20.90;1.00;;;;;;4986960;23;19926;-68
2023/09/22 14:32:35;;;;;;;;;;;20.90;1.00;;;;;;4953504;28;20373;-68
2023/09/22 14:35:02;;;;;;;;;;;20.90;1.00;;;;;;4953735;28;19927;-68
2023/09/22 14:37:29;;;;;;;;;;;20.90;1.00;;;;;;4954065;28;20356;-68
2023/09/22 14:39:56;;;;;;;;;;;20.90;1.00;;;;;;4953617;28;19928;-68
2023/09/22 14:42:24;;;;;;;;;;;20.90;1.00;;;;;;4953710;28;20001;-68
2023/09/22 14:44:51;;;;;;;;;;;20.90;1.00;;;;;;4953800;28;19926;-68
2023/09/22 14:47:19;;;;;;;;;;;20.90;1.00;;;;;;4953598;28;19926;-68
2023/09/22 14:49:46;;;;;;;;;;;20.90;1.00;;;;;;4955456;28;19938;-68
2023/09/22 14:52:13;;;;;;;;;;;20.90;1.00;;;;;;4957181;28;20361;-68
2023/09/22 14:54:40;;;;;;;;;;;20.90;1.00;;;;;;4957278;28;19926;-68
2023/09/22 14:57:07;;;;;;;;;;;20.80;1.00;;;;;;4956871;28;19973;-68
2023/09/22 15:02:40;;;;;;;;;;;20.80;1.00;;;;;;4898542;29;19935;-68